sensor_id;sensor_type;location;lat;lon;timestamp;temperature;humidity
25825;DHT22;13658;44.534;18.694;2022-09-09T00:00:23;19.00;99.90
25825;DHT22;13658;44.534;18.694;2022-09-09T00:03:12;19.00;99.90
25825;DHT22;13658;44.534;18.694;2022-09-09T00:08:27;19.00;99.90
25825;DHT22;13658;44.534;18.694;2022-09-09T00:11:01;19.00;99.90
25825;DHT22;13658;44.534;18.694;2022-09-09T00:13:42;19.00;99.90
25825;DHT22;13658;44.534;18.694;2022-09-09T00:16:17;19.00;99.90
25825;DHT22;13658;44.534;18.694;2022-09-09T00:21:43;19.00;99.90
25825;DHT22;13658;44.534;18.694;2022-09-09T00:24:26;19.10;99.90
25825;DHT22;13658;44.534;18.694;2022-09-09T00:26:59;18.90;99.90
25825;DHT22;13658;44.534;18.694;2022-09-09T00:29:47;18.80;99.90
25825;DHT22;13658;44.534;18.694;2022-09-09T00:32:19;18.80;99.90
25825;DHT22;13658;44.534;18.694;2022-09-09T00:35:12;18.90;99.90
25825;DHT22;13658;44.534;18.694;2022-09-09T00:37:42;18.80;99.90
25825;DHT22;13658;44.534;18.694;2022-09-09T00:40:38;18.60;99.90
25825;DHT22;13658;44.534;18.694;2022-09-09T00:52:21;18.70;99.90
25825;DHT22;13658;44.534;18.694;2022-09-09T00:57:30;18.70;99.90
25825;DHT22;13658;44.534;18.694;2022-09-09T01:02:44;18.80;99.90
25825;DHT22;13658;44.534;18.694;2022-09-09T01:08:03;18.90;99.90
25825;DHT22;13658;44.534;18.694;2022-09-09T01:10:50;19.00;99.90
25825;DHT22;13658;44.534;18.694;2022-09-09T01:13:27;19.00;99.90
25825;DHT22;13658;44.534;18.694;2022-09-09T01:16:02;19.00;99.90
25825;DHT22;13658;44.534;18.694;2022-09-09T01:18:39;18.90;99.90
25825;DHT22;13658;44.534;18.694;2022-09-09T01:21:14;18.90;99.90
25825;DHT22;13658;44.534;18.694;2022-09-09T01:24:00;18.90;99.90
25825;DHT22;13658;44.534;18.694;2022-09-09T01:26:45;18.90;99.90
25825;DHT22;13658;44.534;18.694;2022-09-09T01:29:22;18.90;99.90
25825;DHT22;13658;44.534;18.694;2022-09-09T01:34:20;18.90;99.90
25825;DHT22;13658;44.534;18.694;2022-09-09T01:36:58;19.00;99.90
25825;DHT22;13658;44.534;18.694;2022-09-09T01:39:27;19.10;99.90
25825;DHT22;13658;44.534;18.694;2022-09-09T01:42:01;19.10;99.90
25825;DHT22;13658;44.534;18.694;2022-09-09T01:44:28;19.20;99.90
25825;DHT22;13658;44.534;18.694;2022-09-09T01:46:55;19.20;99.90
25825;DHT22;13658;44.534;18.694;2022-09-09T01:49:22;19.20;99.90
25825;DHT22;13658;44.534;18.694;2022-09-09T01:51:52;19.20;99.90
25825;DHT22;13658;44.534;18.694;2022-09-09T01:54:25;19.20;99.90
25825;DHT22;13658;44.534;18.694;2022-09-09T01:57:15;19.00;99.90
25825;DHT22;13658;44.534;18.694;2022-09-09T02:02:45;18.80;99.90
25825;DHT22;13658;44.534;18.694;2022-09-09T02:05:26;18.70;99.90
25825;DHT22;13658;44.534;18.694;2022-09-09T02:08:06;18.70;99.90
25825;DHT22;13658;44.534;18.694;2022-09-09T02:11:23;18.60;99.90
25825;DHT22;13658;44.534;18.694;2022-09-09T02:14:19;18.60;99.90
25825;DHT22;13658;44.534;18.694;2022-09-09T02:17:10;18.60;99.90
25825;DHT22;13658;44.534;18.694;2022-09-09T02:20:07;18.60;99.90
25825;DHT22;13658;44.534;18.694;2022-09-09T02:23:01;18.50;99.90
25825;DHT22;13658;44.534;18.694;2022-09-09T02:25:29;18.50;99.90
25825;DHT22;13658;44.534;18.694;2022-09-09T02:28:04;18.50;99.90
25825;DHT22;13658;44.534;18.694;2022-09-09T02:30:34;18.40;99.90
25825;DHT22;13658;44.534;18.694;2022-09-09T02:33:02;18.30;99.90
25825;DHT22;13658;44.534;18.694;2022-09-09T02:35:43;18.30;99.90
25825;DHT22;13658;44.534;18.694;2022-09-09T02:38:12;18.00;99.90
25825;DHT22;13658;44.534;18.694;2022-09-09T02:40:44;17.80;99.90
25825;DHT22;13658;44.534;18.694;2022-09-09T02:43:11;17.70;99.90
25825;DHT22;13658;44.534;18.694;2022-09-09T02:45:46;17.80;99.90
25825;DHT22;13658;44.534;18.694;2022-09-09T02:48:20;17.90;99.90
25825;DHT22;13658;44.534;18.694;2022-09-09T02:50:58;18.00;99.90
25825;DHT22;13658;44.534;18.694;2022-09-09T02:53:58;17.90;99.90
25825;DHT22;13658;44.534;18.694;2022-09-09T02:56:30;17.80;99.90
25825;DHT22;13658;44.534;18.694;2022-09-09T02:59:03;17.60;99.90
25825;DHT22;13658;44.534;18.694;2022-09-09T03:01:30;17.50;99.90
25825;DHT22;13658;44.534;18.694;2022-09-09T03:03:58;17.50;99.90
25825;DHT22;13658;44.534;18.694;2022-09-09T03:06:25;17.60;99.90
25825;DHT22;13658;44.534;18.694;2022-09-09T03:08:59;17.60;99.90
25825;DHT22;13658;44.534;18.694;2022-09-09T03:11:29;17.60;99.90
25825;DHT22;13658;44.534;18.694;2022-09-09T03:13:55;17.60;99.90
25825;DHT22;13658;44.534;18.694;2022-09-09T03:16:25;17.60;99.90
25825;DHT22;13658;44.534;18.694;2022-09-09T03:18:54;17.50;99.90
25825;DHT22;13658;44.534;18.694;2022-09-09T03:21:19;17.50;99.90
25825;DHT22;13658;44.534;18.694;2022-09-09T03:23:45;17.60;99.90
25825;DHT22;13658;44.534;18.694;2022-09-09T03:26:12;17.50;99.90
25825;DHT22;13658;44.534;18.694;2022-09-09T03:28:44;17.50;99.90
25825;DHT22;13658;44.534;18.694;2022-09-09T03:31:12;17.50;99.90
25825;DHT22;13658;44.534;18.694;2022-09-09T03:33:40;17.50;99.90
25825;DHT22;13658;44.534;18.694;2022-09-09T03:36:12;17.50;99.90
25825;DHT22;13658;44.534;18.694;2022-09-09T03:38:39;17.60;99.90
25825;DHT22;13658;44.534;18.694;2022-09-09T03:41:05;17.40;99.90
25825;DHT22;13658;44.534;18.694;2022-09-09T03:43:32;17.40;99.90
25825;DHT22;13658;44.534;18.694;2022-09-09T03:45:58;17.40;99.90
25825;DHT22;13658;44.534;18.694;2022-09-09T03:48:26;17.30;99.90
25825;DHT22;13658;44.534;18.694;2022-09-09T03:50:55;17.40;99.90
25825;DHT22;13658;44.534;18.694;2022-09-09T03:53:27;17.40;99.90
25825;DHT22;13658;44.534;18.694;2022-09-09T03:55:55;17.40;99.90
25825;DHT22;13658;44.534;18.694;2022-09-09T03:58:25;17.40;99.90
25825;DHT22;13658;44.534;18.694;2022-09-09T04:00:59;17.40;99.90
25825;DHT22;13658;44.534;18.694;2022-09-09T04:03:27;17.50;99.90
25825;DHT22;13658;44.534;18.694;2022-09-09T04:05:54;17.60;99.90
25825;DHT22;13658;44.534;18.694;2022-09-09T04:08:22;17.60;99.90
25825;DHT22;13658;44.534;18.694;2022-09-09T04:10:51;17.50;99.90
25825;DHT22;13658;44.534;18.694;2022-09-09T04:13:18;17.60;99.90
25825;DHT22;13658;44.534;18.694;2022-09-09T04:15:53;17.70;99.90
25825;DHT22;13658;44.534;18.694;2022-09-09T04:18:20;17.70;99.90
25825;DHT22;13658;44.534;18.694;2022-09-09T04:20:48;17.70;99.90
25825;DHT22;13658;44.534;18.694;2022-09-09T04:23:17;17.80;99.90
25825;DHT22;13658;44.534;18.694;2022-09-09T04:25:52;17.70;99.90
25825;DHT22;13658;44.534;18.694;2022-09-09T04:28:20;17.70;99.90
25825;DHT22;13658;44.534;18.694;2022-09-09T04:30:47;17.70;99.90
25825;DHT22;13658;44.534;18.694;2022-09-09T04:33:14;17.70;99.90
25825;DHT22;13658;44.534;18.694;2022-09-09T04:35:48;17.70;99.90
25825;DHT22;13658;44.534;18.694;2022-09-09T04:38:17;17.70;99.90
25825;DHT22;13658;44.534;18.694;2022-09-09T04:40:47;17.70;99.90
25825;DHT22;13658;44.534;18.694;2022-09-09T04:43:13;17.80;99.90
25825;DHT22;13658;44.534;18.694;2022-09-09T04:45:46;17.70;99.90
25825;DHT22;13658;44.534;18.694;2022-09-09T04:48:13;17.60;99.90
25825;DHT22;13658;44.534;18.694;2022-09-09T04:50:39;17.60;99.90
25825;DHT22;13658;44.534;18.694;2022-09-09T04:53:07;17.60;99.90
25825;DHT22;13658;44.534;18.694;2022-09-09T04:55:36;17.60;99.90
25825;DHT22;13658;44.534;18.694;2022-09-09T04:58:07;17.60;99.90
25825;DHT22;13658;44.534;18.694;2022-09-09T05:00:34;17.70;99.90
25825;DHT22;13658;44.534;18.694;2022-09-09T05:03:05;17.70;99.90
25825;DHT22;13658;44.534;18.694;2022-09-09T05:05:32;17.80;99.90
25825;DHT22;13658;44.534;18.694;2022-09-09T05:08:07;17.80;99.90
25825;DHT22;13658;44.534;18.694;2022-09-09T05:10:37;17.80;99.90
25825;DHT22;13658;44.534;18.694;2022-09-09T05:13:04;17.70;99.90
25825;DHT22;13658;44.534;18.694;2022-09-09T05:15:31;17.70;99.90
25825;DHT22;13658;44.534;18.694;2022-09-09T05:18:01;17.70;99.90
25825;DHT22;13658;44.534;18.694;2022-09-09T05:20:30;17.70;99.90
25825;DHT22;13658;44.534;18.694;2022-09-09T05:22:56;17.80;99.90
25825;DHT22;13658;44.534;18.694;2022-09-09T05:25:25;17.80;99.90
25825;DHT22;13658;44.534;18.694;2022-09-09T05:27:53;17.80;99.90
25825;DHT22;13658;44.534;18.694;2022-09-09T05:30:20;17.80;99.90
25825;DHT22;13658;44.534;18.694;2022-09-09T05:32:47;17.80;99.90
25825;DHT22;13658;44.534;18.694;2022-09-09T05:35:15;17.90;99.90
25825;DHT22;13658;44.534;18.694;2022-09-09T05:37:42;17.90;99.90
25825;DHT22;13658;44.534;18.694;2022-09-09T05:40:08;17.90;99.90
25825;DHT22;13658;44.534;18.694;2022-09-09T05:42:35;17.90;99.90
25825;DHT22;13658;44.534;18.694;2022-09-09T05:45:01;18.00;99.90
25825;DHT22;13658;44.534;18.694;2022-09-09T05:47:27;18.20;99.90
25825;DHT22;13658;44.534;18.694;2022-09-09T05:49:55;18.20;99.90
25825;DHT22;13658;44.534;18.694;2022-09-09T05:52:21;18.30;99.90
25825;DHT22;13658;44.534;18.694;2022-09-09T05:54:48;18.40;99.90
25825;DHT22;13658;44.534;18.694;2022-09-09T05:57:14;18.60;99.90
25825;DHT22;13658;44.534;18.694;2022-09-09T05:59:40;18.80;99.90
25825;DHT22;13658;44.534;18.694;2022-09-09T06:02:08;18.80;99.90
25825;DHT22;13658;44.534;18.694;2022-09-09T06:04:36;18.90;99.90
25825;DHT22;13658;44.534;18.694;2022-09-09T06:07:03;19.00;99.90
25825;DHT22;13658;44.534;18.694;2022-09-09T06:09:29;18.90;99.90
25825;DHT22;13658;44.534;18.694;2022-09-09T06:11:56;19.10;99.90
25825;DHT22;13658;44.534;18.694;2022-09-09T06:14:23;19.20;99.90
25825;DHT22;13658;44.534;18.694;2022-09-09T06:16:52;19.10;99.90
25825;DHT22;13658;44.534;18.694;2022-09-09T06:19:21;19.00;99.90
25825;DHT22;13658;44.534;18.694;2022-09-09T06:21:48;18.90;99.90
25825;DHT22;13658;44.534;18.694;2022-09-09T06:24:15;18.90;99.90
25825;DHT22;13658;44.534;18.694;2022-09-09T06:26:43;19.10;99.90
25825;DHT22;13658;44.534;18.694;2022-09-09T06:29:18;19.20;99.90
25825;DHT22;13658;44.534;18.694;2022-09-09T06:31:44;19.30;99.90
25825;DHT22;13658;44.534;18.694;2022-09-09T06:34:17;19.30;99.90
25825;DHT22;13658;44.534;18.694;2022-09-09T06:36:49;19.50;99.90
25825;DHT22;13658;44.534;18.694;2022-09-09T06:39:16;19.60;99.90
25825;DHT22;13658;44.534;18.694;2022-09-09T06:41:42;19.80;99.90
25825;DHT22;13658;44.534;18.694;2022-09-09T06:44:19;19.80;99.90
25825;DHT22;13658;44.534;18.694;2022-09-09T06:46:45;19.70;99.90
25825;DHT22;13658;44.534;18.694;2022-09-09T06:49:14;19.70;99.90
25825;DHT22;13658;44.534;18.694;2022-09-09T06:51:41;19.60;99.90
25825;DHT22;13658;44.534;18.694;2022-09-09T06:54:11;19.70;99.90
25825;DHT22;13658;44.534;18.694;2022-09-09T06:56:42;19.90;99.90
25825;DHT22;13658;44.534;18.694;2022-09-09T06:59:14;20.00;99.90
25825;DHT22;13658;44.534;18.694;2022-09-09T07:01:42;20.50;99.90
25825;DHT22;13658;44.534;18.694;2022-09-09T07:04:13;21.00;99.90
25825;DHT22;13658;44.534;18.694;2022-09-09T07:06:44;21.30;99.90
25825;DHT22;13658;44.534;18.694;2022-09-09T07:09:15;21.70;99.90
25825;DHT22;13658;44.534;18.694;2022-09-09T07:11:46;22.00;99.90
25825;DHT22;13658;44.534;18.694;2022-09-09T07:14:14;22.40;99.90
25825;DHT22;13658;44.534;18.694;2022-09-09T07:16:42;22.80;99.90
25825;DHT22;13658;44.534;18.694;2022-09-09T07:19:10;22.90;99.90
25825;DHT22;13658;44.534;18.694;2022-09-09T07:21:36;23.20;99.90
25825;DHT22;13658;44.534;18.694;2022-09-09T07:24:02;23.40;99.90
25825;DHT22;13658;44.534;18.694;2022-09-09T07:26:31;23.10;99.90
25825;DHT22;13658;44.534;18.694;2022-09-09T07:28:59;23.20;99.90
25825;DHT22;13658;44.534;18.694;2022-09-09T07:31:27;23.50;99.90
25825;DHT22;13658;44.534;18.694;2022-09-09T07:33:54;23.80;99.90
25825;DHT22;13658;44.534;18.694;2022-09-09T07:36:23;24.00;99.90
25825;DHT22;13658;44.534;18.694;2022-09-09T07:38:54;24.30;99.90
25825;DHT22;13658;44.534;18.694;2022-09-09T07:41:22;24.50;99.90
25825;DHT22;13658;44.534;18.694;2022-09-09T07:43:50;25.00;99.90
25825;DHT22;13658;44.534;18.694;2022-09-09T07:46:24;25.20;99.90
25825;DHT22;13658;44.534;18.694;2022-09-09T07:48:55;25.30;99.90
25825;DHT22;13658;44.534;18.694;2022-09-09T07:51:28;25.40;99.90
25825;DHT22;13658;44.534;18.694;2022-09-09T07:54:00;24.80;99.90
25825;DHT22;13658;44.534;18.694;2022-09-09T07:56:30;24.90;99.90
25825;DHT22;13658;44.534;18.694;2022-09-09T07:58:58;24.20;99.90
25825;DHT22;13658;44.534;18.694;2022-09-09T08:01:28;24.20;99.90
25825;DHT22;13658;44.534;18.694;2022-09-09T08:04:00;24.50;99.90
25825;DHT22;13658;44.534;18.694;2022-09-09T08:06:39;24.50;99.90
25825;DHT22;13658;44.534;18.694;2022-09-09T08:09:07;24.70;99.90
25825;DHT22;13658;44.534;18.694;2022-09-09T08:11:34;25.10;99.90
25825;DHT22;13658;44.534;18.694;2022-09-09T08:14:03;25.10;99.90
25825;DHT22;13658;44.534;18.694;2022-09-09T08:16:32;25.20;99.90
25825;DHT22;13658;44.534;18.694;2022-09-09T08:19:00;24.90;99.90
25825;DHT22;13658;44.534;18.694;2022-09-09T08:21:29;25.00;99.90
25825;DHT22;13658;44.534;18.694;2022-09-09T08:23:58;24.90;99.90
25825;DHT22;13658;44.534;18.694;2022-09-09T08:26:30;25.00;99.90
25825;DHT22;13658;44.534;18.694;2022-09-09T08:28:57;25.30;99.90
25825;DHT22;13658;44.534;18.694;2022-09-09T08:31:30;25.60;99.90
25825;DHT22;13658;44.534;18.694;2022-09-09T08:33:58;26.00;99.90
25825;DHT22;13658;44.534;18.694;2022-09-09T08:36:33;26.30;99.90
25825;DHT22;13658;44.534;18.694;2022-09-09T08:39:00;26.30;99.90
25825;DHT22;13658;44.534;18.694;2022-09-09T08:51:48;29.10;99.90
25825;DHT22;13658;44.534;18.694;2022-09-09T08:54:16;29.10;99.90
25825;DHT22;13658;44.534;18.694;2022-09-09T08:56:43;28.90;99.90
25825;DHT22;13658;44.534;18.694;2022-09-09T08:59:12;28.70;99.90
25825;DHT22;13658;44.534;18.694;2022-09-09T09:10:42;28.70;99.90
25825;DHT22;13658;44.534;18.694;2022-09-09T09:13:50;27.40;99.90
25825;DHT22;13658;44.534;18.694;2022-09-09T09:18:49;28.60;99.90
25825;DHT22;13658;44.534;18.694;2022-09-09T09:21:44;29.00;99.90
25825;DHT22;13658;44.534;18.694;2022-09-09T09:26:51;28.40;99.90
25825;DHT22;13658;44.534;18.694;2022-09-09T09:29:20;28.10;99.90
25825;DHT22;13658;44.534;18.694;2022-09-09T09:31:52;27.20;99.90
25825;DHT22;13658;44.534;18.694;2022-09-09T09:34:22;27.00;99.90
25825;DHT22;13658;44.534;18.694;2022-09-09T09:36:58;27.00;99.90
25825;DHT22;13658;44.534;18.694;2022-09-09T09:39:32;27.70;99.90
25825;DHT22;13658;44.534;18.694;2022-09-09T09:42:13;28.00;99.90
25825;DHT22;13658;44.534;18.694;2022-09-09T09:44:41;27.20;99.90
25825;DHT22;13658;44.534;18.694;2022-09-09T09:49:57;26.50;99.90
25825;DHT22;13658;44.534;18.694;2022-09-09T09:52:28;27.10;99.90
25825;DHT22;13658;44.534;18.694;2022-09-09T09:54:56;28.10;99.90
25825;DHT22;13658;44.534;18.694;2022-09-09T09:57:26;28.60;99.90
25825;DHT22;13658;44.534;18.694;2022-09-09T10:00:14;28.20;99.90
25825;DHT22;13658;44.534;18.694;2022-09-09T10:02:42;28.10;99.90
25825;DHT22;13658;44.534;18.694;2022-09-09T10:05:16;28.20;99.90
25825;DHT22;13658;44.534;18.694;2022-09-09T10:07:46;28.40;99.90
25825;DHT22;13658;44.534;18.694;2022-09-09T10:10:20;28.90;99.90
25825;DHT22;13658;44.534;18.694;2022-09-09T10:16:13;29.00;99.90
25825;DHT22;13658;44.534;18.694;2022-09-09T10:19:15;28.50;99.90
25825;DHT22;13658;44.534;18.694;2022-09-09T10:22:27;28.40;99.90
25825;DHT22;13658;44.534;18.694;2022-09-09T10:24:44;29.10;99.90
25825;DHT22;13658;44.534;18.694;2022-09-09T10:38:05;29.80;99.90
25825;DHT22;13658;44.534;18.694;2022-09-09T10:40:38;30.00;99.90
25825;DHT22;13658;44.534;18.694;2022-09-09T10:56:30;28.40;99.90
25825;DHT22;13658;44.534;18.694;2022-09-09T11:04:17;28.30;99.90
25825;DHT22;13658;44.534;18.694;2022-09-09T11:06:51;28.50;99.90
25825;DHT22;13658;44.534;18.694;2022-09-09T11:09:23;28.50;99.90
25825;DHT22;13658;44.534;18.694;2022-09-09T11:11:54;28.20;99.90
25825;DHT22;13658;44.534;18.694;2022-09-09T11:19:47;28.20;99.90
25825;DHT22;13658;44.534;18.694;2022-09-09T11:25:17;28.10;99.90
25825;DHT22;13658;44.534;18.694;2022-09-09T11:44:39;28.20;99.90
25825;DHT22;13658;44.534;18.694;2022-09-09T11:47:36;27.60;99.90
25825;DHT22;13658;44.534;18.694;2022-09-09T11:52:42;28.20;99.90
25825;DHT22;13658;44.534;18.694;2022-09-09T11:55:31;28.40;99.90
25825;DHT22;13658;44.534;18.694;2022-09-09T11:58:03;28.50;99.90
25825;DHT22;13658;44.534;18.694;2022-09-09T12:00:34;28.50;99.90
25825;DHT22;13658;44.534;18.694;2022-09-09T12:03:01;28.60;99.90
25825;DHT22;13658;44.534;18.694;2022-09-09T12:05:39;28.40;99.90
25825;DHT22;13658;44.534;18.694;2022-09-09T12:08:09;28.40;99.90
25825;DHT22;13658;44.534;18.694;2022-09-09T12:10:39;28.10;99.90
25825;DHT22;13658;44.534;18.694;2022-09-09T12:13:20;28.20;99.90
25825;DHT22;13658;44.534;18.694;2022-09-09T12:15:51;28.40;99.90
25825;DHT22;13658;44.534;18.694;2022-09-09T12:21:30;27.90;99.90
25825;DHT22;13658;44.534;18.694;2022-09-09T12:24:03;27.70;99.90
25825;DHT22;13658;44.534;18.694;2022-09-09T12:26:36;27.50;99.90
25825;DHT22;13658;44.534;18.694;2022-09-09T12:29:29;27.20;99.90
25825;DHT22;13658;44.534;18.694;2022-09-09T12:32:22;27.20;99.90
25825;DHT22;13658;44.534;18.694;2022-09-09T12:35:00;27.10;99.90
25825;DHT22;13658;44.534;18.694;2022-09-09T12:37:40;27.20;99.90
25825;DHT22;13658;44.534;18.694;2022-09-09T12:40:21;27.10;99.90
25825;DHT22;13658;44.534;18.694;2022-09-09T12:42:48;27.40;99.90
25825;DHT22;13658;44.534;18.694;2022-09-09T12:45:21;27.50;99.90
25825;DHT22;13658;44.534;18.694;2022-09-09T12:47:56;27.70;99.90
25825;DHT22;13658;44.534;18.694;2022-09-09T12:50:26;27.80;99.90
25825;DHT22;13658;44.534;18.694;2022-09-09T12:52:59;27.90;99.90
25825;DHT22;13658;44.534;18.694;2022-09-09T12:55:31;27.80;99.90
25825;DHT22;13658;44.534;18.694;2022-09-09T12:57:59;27.80;99.90
25825;DHT22;13658;44.534;18.694;2022-09-09T13:00:26;27.80;99.90
25825;DHT22;13658;44.534;18.694;2022-09-09T13:03:14;27.70;99.90
25825;DHT22;13658;44.534;18.694;2022-09-09T13:05:41;27.60;99.90
25825;DHT22;13658;44.534;18.694;2022-09-09T13:08:12;27.50;99.90
25825;DHT22;13658;44.534;18.694;2022-09-09T13:11:04;27.50;99.90
25825;DHT22;13658;44.534;18.694;2022-09-09T13:13:35;27.50;99.90
25825;DHT22;13658;44.534;18.694;2022-09-09T13:16:03;27.50;99.90
25825;DHT22;13658;44.534;18.694;2022-09-09T13:18:35;27.50;99.90
25825;DHT22;13658;44.534;18.694;2022-09-09T13:21:02;27.60;99.90
25825;DHT22;13658;44.534;18.694;2022-09-09T13:23:31;27.40;99.90
25825;DHT22;13658;44.534;18.694;2022-09-09T13:26:03;27.50;99.90
25825;DHT22;13658;44.534;18.694;2022-09-09T13:28:31;27.30;99.90
25825;DHT22;13658;44.534;18.694;2022-09-09T13:31:00;27.30;99.90
25825;DHT22;13658;44.534;18.694;2022-09-09T13:33:35;27.30;99.90
25825;DHT22;13658;44.534;18.694;2022-09-09T13:36:10;27.30;99.90
25825;DHT22;13658;44.534;18.694;2022-09-09T13:38:52;27.40;99.90
25825;DHT22;13658;44.534;18.694;2022-09-09T13:41:45;27.30;99.90
25825;DHT22;13658;44.534;18.694;2022-09-09T13:44:14;27.30;99.90
25825;DHT22;13658;44.534;18.694;2022-09-09T13:46:43;27.30;99.90
25825;DHT22;13658;44.534;18.694;2022-09-09T13:51:39;27.40;99.90
25825;DHT22;13658;44.534;18.694;2022-09-09T13:54:06;27.30;99.90
25825;DHT22;13658;44.534;18.694;2022-09-09T13:56:36;27.30;99.90
25825;DHT22;13658;44.534;18.694;2022-09-09T13:59:04;27.30;99.90
25825;DHT22;13658;44.534;18.694;2022-09-09T14:01:30;27.30;99.90
25825;DHT22;13658;44.534;18.694;2022-09-09T14:03:56;27.30;99.90
25825;DHT22;13658;44.534;18.694;2022-09-09T14:06:23;27.40;99.90
25825;DHT22;13658;44.534;18.694;2022-09-09T14:08:50;27.30;99.90
25825;DHT22;13658;44.534;18.694;2022-09-09T14:11:17;27.20;99.90
25825;DHT22;13658;44.534;18.694;2022-09-09T14:13:43;27.20;99.90
25825;DHT22;13658;44.534;18.694;2022-09-09T14:16:09;27.00;99.90
25825;DHT22;13658;44.534;18.694;2022-09-09T14:18:35;27.10;99.90
25825;DHT22;13658;44.534;18.694;2022-09-09T14:21:03;27.10;99.90
25825;DHT22;13658;44.534;18.694;2022-09-09T14:23:29;27.20;99.90
25825;DHT22;13658;44.534;18.694;2022-09-09T14:25:55;27.30;99.90
25825;DHT22;13658;44.534;18.694;2022-09-09T14:28:21;27.30;99.90
25825;DHT22;13658;44.534;18.694;2022-09-09T14:30:48;27.40;99.90
25825;DHT22;13658;44.534;18.694;2022-09-09T14:33:15;27.30;99.90
25825;DHT22;13658;44.534;18.694;2022-09-09T14:35:42;27.20;99.90
25825;DHT22;13658;44.534;18.694;2022-09-09T14:38:08;27.20;99.90
25825;DHT22;13658;44.534;18.694;2022-09-09T14:40:36;27.30;99.90
25825;DHT22;13658;44.534;18.694;2022-09-09T14:43:03;27.40;99.90
25825;DHT22;13658;44.534;18.694;2022-09-09T14:45:29;27.30;99.90
25825;DHT22;13658;44.534;18.694;2022-09-09T14:47:55;27.30;99.90
25825;DHT22;13658;44.534;18.694;2022-09-09T14:50:22;27.40;99.90
25825;DHT22;13658;44.534;18.694;2022-09-09T14:52:48;27.30;99.90
25825;DHT22;13658;44.534;18.694;2022-09-09T14:55:15;27.30;99.90
25825;DHT22;13658;44.534;18.694;2022-09-09T14:57:42;27.30;99.90
25825;DHT22;13658;44.534;18.694;2022-09-09T15:00:09;27.30;99.90
25825;DHT22;13658;44.534;18.694;2022-09-09T15:02:37;27.30;99.90
25825;DHT22;13658;44.534;18.694;2022-09-09T15:05:04;27.40;99.90
25825;DHT22;13658;44.534;18.694;2022-09-09T15:07:30;27.40;99.90
25825;DHT22;13658;44.534;18.694;2022-09-09T15:09:57;27.40;99.90
25825;DHT22;13658;44.534;18.694;2022-09-09T15:12:24;27.40;99.90
25825;DHT22;13658;44.534;18.694;2022-09-09T15:14:50;27.20;99.90
25825;DHT22;13658;44.534;18.694;2022-09-09T15:17:16;27.10;99.90
25825;DHT22;13658;44.534;18.694;2022-09-09T15:19:42;26.80;99.90
25825;DHT22;13658;44.534;18.694;2022-09-09T15:22:08;26.60;99.90
25825;DHT22;13658;44.534;18.694;2022-09-09T15:24:34;26.30;99.90
25825;DHT22;13658;44.534;18.694;2022-09-09T15:27:01;26.00;99.90
25825;DHT22;13658;44.534;18.694;2022-09-09T15:29:27;25.70;99.90
25825;DHT22;13658;44.534;18.694;2022-09-09T15:31:54;25.40;99.90
25825;DHT22;13658;44.534;18.694;2022-09-09T15:34:23;25.30;99.90
25825;DHT22;13658;44.534;18.694;2022-09-09T15:36:50;25.30;99.90
25825;DHT22;13658;44.534;18.694;2022-09-09T15:39:17;25.30;99.90
25825;DHT22;13658;44.534;18.694;2022-09-09T15:41:46;25.30;99.90
25825;DHT22;13658;44.534;18.694;2022-09-09T15:44:14;25.30;99.90
25825;DHT22;13658;44.534;18.694;2022-09-09T15:46:43;25.20;99.90
25825;DHT22;13658;44.534;18.694;2022-09-09T15:49:11;25.00;99.90
25825;DHT22;13658;44.534;18.694;2022-09-09T15:51:43;24.90;99.90
25825;DHT22;13658;44.534;18.694;2022-09-09T15:54:12;24.80;99.90
25825;DHT22;13658;44.534;18.694;2022-09-09T15:56:38;24.90;99.90
25825;DHT22;13658;44.534;18.694;2022-09-09T15:59:04;24.80;99.90
25825;DHT22;13658;44.534;18.694;2022-09-09T16:01:31;24.80;99.90
25825;DHT22;13658;44.534;18.694;2022-09-09T16:03:58;24.70;99.90
25825;DHT22;13658;44.534;18.694;2022-09-09T16:06:26;24.50;99.90
25825;DHT22;13658;44.534;18.694;2022-09-09T16:08:55;24.40;99.90
25825;DHT22;13658;44.534;18.694;2022-09-09T16:11:32;24.20;99.90
25825;DHT22;13658;44.534;18.694;2022-09-09T16:13:59;24.20;99.90
25825;DHT22;13658;44.534;18.694;2022-09-09T16:16:28;24.20;99.90
25825;DHT22;13658;44.534;18.694;2022-09-09T16:18:57;24.20;99.90
25825;DHT22;13658;44.534;18.694;2022-09-09T16:21:30;24.00;99.90
25825;DHT22;13658;44.534;18.694;2022-09-09T16:23:59;24.10;99.90
25825;DHT22;13658;44.534;18.694;2022-09-09T16:26:28;24.00;99.90
25825;DHT22;13658;44.534;18.694;2022-09-09T16:28:56;23.90;99.90
25825;DHT22;13658;44.534;18.694;2022-09-09T16:31:25;23.80;99.90
25825;DHT22;13658;44.534;18.694;2022-09-09T16:33:51;23.70;99.90
25825;DHT22;13658;44.534;18.694;2022-09-09T16:36:23;23.70;99.90
25825;DHT22;13658;44.534;18.694;2022-09-09T16:38:57;23.60;99.90
25825;DHT22;13658;44.534;18.694;2022-09-09T16:41:28;23.50;99.90
25825;DHT22;13658;44.534;18.694;2022-09-09T16:43:56;23.50;99.90
25825;DHT22;13658;44.534;18.694;2022-09-09T16:46:23;23.50;99.90
25825;DHT22;13658;44.534;18.694;2022-09-09T16:48:50;23.60;99.90
25825;DHT22;13658;44.534;18.694;2022-09-09T16:51:24;23.50;99.90
25825;DHT22;13658;44.534;18.694;2022-09-09T16:53:52;22.80;99.90
25825;DHT22;13658;44.534;18.694;2022-09-09T16:56:21;22.40;99.90
25825;DHT22;13658;44.534;18.694;2022-09-09T16:58:52;22.20;99.90
25825;DHT22;13658;44.534;18.694;2022-09-09T17:01:22;22.00;99.90
25825;DHT22;13658;44.534;18.694;2022-09-09T17:03:59;21.70;99.90
25825;DHT22;13658;44.534;18.694;2022-09-09T17:06:29;21.50;99.90
25825;DHT22;13658;44.534;18.694;2022-09-09T17:09:00;21.40;99.90
25825;DHT22;13658;44.534;18.694;2022-09-09T17:11:28;21.30;99.90
25825;DHT22;13658;44.534;18.694;2022-09-09T17:13:55;21.30;99.90
25825;DHT22;13658;44.534;18.694;2022-09-09T17:16:23;21.30;99.90
25825;DHT22;13658;44.534;18.694;2022-09-09T17:18:50;21.40;99.90
25825;DHT22;13658;44.534;18.694;2022-09-09T17:21:19;21.30;99.90
25825;DHT22;13658;44.534;18.694;2022-09-09T17:23:45;21.40;99.90
25825;DHT22;13658;44.534;18.694;2022-09-09T17:26:15;21.40;99.90
25825;DHT22;13658;44.534;18.694;2022-09-09T17:28:42;21.30;99.90
25825;DHT22;13658;44.534;18.694;2022-09-09T17:31:10;21.20;99.90
25825;DHT22;13658;44.534;18.694;2022-09-09T17:33:39;21.10;99.90
25825;DHT22;13658;44.534;18.694;2022-09-09T17:36:17;21.20;99.90
25825;DHT22;13658;44.534;18.694;2022-09-09T17:38:44;21.20;99.90
25825;DHT22;13658;44.534;18.694;2022-09-09T17:41:13;21.30;99.90